Time;durP1;ratioP1;P1;durP2;ratioP2;P2;SDS_P1;SDS_P2;PMS_P1;PMS_P2;Temp;Humidity;BMP_temperature;BMP_pressure;BME280_temperature;BME280_humidity;BME280_pressure;Samples;Min_cycle;Max_cycle;Signal;HPM_P1;HPM_P2
2023/11/25 00:00:48;;;;;;;5.50;3.30;;;5.70;53.20;;;;;;5024422;28;20029;-78
2023/11/25 00:03:15;;;;;;;6.93;4.22;;;5.70;53.20;;;;;;5021704;28;20041;-79
2023/11/25 00:05:42;;;;;;;4.82;2.85;;;5.60;53.10;;;;;;5015805;28;20138;-79
2023/11/25 00:08:08;;;;;;;7.90;3.33;;;5.60;53.10;;;;;;5027613;28;20640;-79
2023/11/25 00:10:34;;;;;;;5.65;2.90;;;5.60;53.10;;;;;;5016816;28;20495;-79
2023/11/25 00:13:01;;;;;;;5.30;3.22;;;5.60;53.10;;;;;;5035032;28;20034;-79
2023/11/25 00:15:27;;;;;;;5.25;3.47;;;5.50;53.00;;;;;;5017414;28;20030;-79
2023/11/25 00:17:54;;;;;;;6.80;3.40;;;5.50;53.00;;;;;;5025240;28;20053;-79
2023/11/25 00:20:21;;;;;;;5.82;3.28;;;5.50;53.00;;;;;;5026591;28;20065;-79
2023/11/25 00:22:47;;;;;;;4.50;3.47;;;5.50;53.00;;;;;;5024180;28;20520;-79
2023/11/25 00:25:13;;;;;;;5.93;3.60;;;5.40;52.90;;;;;;5028268;28;20033;-79
2023/11/25 00:27:39;;;;;;;4.72;3.72;;;5.40;52.90;;;;;;5054491;28;20034;-79
2023/11/25 00:30:09;;;;;;;5.45;3.60;;;5.30;52.80;;;;;;5026029;28;20130;-79
2023/11/25 00:32:37;;;;;;;4.53;3.15;;;5.30;52.80;;;;;;5025394;28;20057;-78
2023/11/25 00:35:05;;;;;;;6.80;3.83;;;5.30;52.80;;;;;;5047559;28;20041;-79
2023/11/25 00:37:32;;;;;;;4.65;3.22;;;5.20;52.70;;;;;;5039205;28;20061;-79
2023/11/25 00:39:59;;;;;;;7.72;3.75;;;5.20;52.70;;;;;;5019974;28;20043;-78
2023/11/25 00:42:29;;;;;;;7.50;3.70;;;5.20;52.70;;;;;;5025115;28;20068;-78
2023/11/25 00:44:55;;;;;;;4.65;3.08;;;5.10;52.50;;;;;;5023973;28;20069;-79
2023/11/25 00:47:22;;;;;;;6.40;3.63;;;5.10;52.60;;;;;;5024655;28;20084;-80
2023/11/25 00:49:49;;;;;;;7.05;3.65;;;5.10;52.70;;;;;;5020796;28;20063;-77
2023/11/25 00:52:15;;;;;;;5.38;3.65;;;5.00;52.50;;;;;;5028115;28;20474;-79
2023/11/25 00:54:41;;;;;;;5.72;3.88;;;5.00;52.50;;;;;;5018047;28;20053;-79
2023/11/25 00:57:07;;;;;;;6.10;3.72;;;5.00;52.50;;;;;;5020112;28;20026;-79
2023/11/25 00:59:33;;;;;;;7.90;4.20;;;5.00;52.50;;;;;;5015488;28;20116;-80
2023/11/25 01:01:59;;;;;;;7.38;3.97;;;4.90;52.30;;;;;;5017552;28;20112;-79
2023/11/25 01:04:25;;;;;;;6.93;4.18;;;4.90;52.30;;;;;;5017011;28;20074;-79
2023/11/25 01:06:52;;;;;;;7.65;3.85;;;4.90;52.40;;;;;;5032221;28;20476;-79
2023/11/25 01:09:19;;;;;;;8.85;3.90;;;4.90;52.40;;;;;;5025323;28;20311;-79
2023/11/25 01:11:46;;;;;;;7.75;4.82;;;4.80;52.20;;;;;;5017575;28;20488;-79
2023/11/25 01:14:12;;;;;;;5.13;3.92;;;4.90;52.40;;;;;;5039639;28;20449;-79
2023/11/25 01:16:39;;;;;;;6.00;4.15;;;4.80;52.30;;;;;;5024733;28;20029;-79
2023/11/25 01:19:05;;;;;;;8.95;4.63;;;4.70;52.10;;;;;;5020659;28;20040;-79
2023/11/25 01:21:32;;;;;;;7.53;4.50;;;4.80;52.30;;;;;;5018923;28;20489;-79
2023/11/25 01:23:58;;;;;;;6.72;4.28;;;4.70;52.20;;;;;;5026707;28;20044;-78
2023/11/25 01:26:24;;;;;;;7.72;4.88;;;4.70;52.20;;;;;;5028535;28;20592;-79
2023/11/25 01:28:50;;;;;;;9.20;5.13;;;4.60;52.00;;;;;;5026855;28;20276;-78
2023/11/25 01:31:19;;;;;;;7.05;4.68;;;4.60;52.10;;;;;;5025664;28;20029;-80
2023/11/25 01:33:44;;;;;;;12.70;4.55;;;4.60;52.10;;;;;;5054411;28;20047;-78
2023/11/25 01:36:11;;;;;;;6.40;4.28;;;4.60;52.20;;;;;;5020820;28;20515;-79
2023/11/25 01:38:38;;;;;;;6.85;3.83;;;4.50;52.00;;;;;;5026341;28;20133;-79
2023/11/25 01:41:05;;;;;;;6.25;4.00;;;4.50;52.00;;;;;;5021544;28;20264;-79
2023/11/25 01:43:31;;;;;;;6.05;4.03;;;4.50;52.10;;;;;;5025173;28;20041;-78
2023/11/25 01:46:00;;;;;;;5.18;3.67;;;4.50;52.10;;;;;;5013263;28;20040;-78
2023/11/25 01:48:29;;;;;;;5.90;3.10;;;4.50;52.10;;;;;;5018209;28;20437;-78
2023/11/25 01:50:55;;;;;;;7.00;4.00;;;4.40;51.90;;;;;;5016841;28;20500;-78
2023/11/25 01:53:22;;;;;;;7.57;3.88;;;4.40;51.90;;;;;;5021445;28;20809;-78
2023/11/25 01:55:52;;;;;;;3.58;3.00;;;4.40;52.00;;;;;;5015742;28;20178;-78
2023/11/25 01:58:22;;;;;;;6.38;4.05;;;4.40;51.90;;;;;;5005270;28;20392;-78
2023/11/25 02:00:49;;;;;;;7.10;3.78;;;4.40;52.00;;;;;;5014796;28;20025;-77
2023/11/25 02:03:16;;;;;;;6.53;3.30;;;4.40;52.00;;;;;;5019848;28;20511;-78
2023/11/25 02:05:44;;;;;;;4.15;3.25;;;4.30;51.80;;;;;;5015397;28;20076;-77
2023/11/25 02:08:10;;;;;;;5.60;3.35;;;4.30;51.80;;;;;;5003834;28;20042;-76
2023/11/25 02:10:36;;;;;;;5.80;3.20;;;4.20;52.30;;;;;;5025264;28;20124;-77
2023/11/25 02:13:04;;;;;;;6.97;3.22;;;4.30;52.00;;;;;;5017660;28;20206;-77
2023/11/25 02:15:32;;;;;;;6.20;3.22;;;4.20;51.80;;;;;;5022456;28;20033;-78
2023/11/25 02:17:58;;;;;;;5.30;3.22;;;4.20;51.80;;;;;;4996251;28;20022;-78
2023/11/25 02:20:35;;;;;;;7.28;3.10;;;4.10;51.60;;;;;;5014334;28;20056;-78
2023/11/25 02:23:01;;;;;;;5.93;3.42;;;4.10;51.70;;;;;;5032660;28;20049;-79
2023/11/25 02:25:28;;;;;;;7.35;3.53;;;4.10;51.70;;;;;;4996778;28;20079;-79
2023/11/25 02:27:55;;;;;;;5.35;3.67;;;4.10;51.80;;;;;;5022041;28;20061;-79
2023/11/25 02:30:26;;;;;;;5.47;2.88;;;4.10;51.80;;;;;;5000759;28;20041;-77
2023/11/25 02:32:53;;;;;;;4.65;2.80;;;4.00;51.60;;;;;;5020714;28;20144;-78
2023/11/25 02:35:21;;;;;;;6.30;2.78;;;4.00;51.60;;;;;;5036226;28;20477;-79
2023/11/25 02:37:47;;;;;;;5.50;3.17;;;4.00;51.70;;;;;;5026106;28;20153;-77
2023/11/25 02:40:16;;;;;;;5.18;3.20;;;4.00;51.70;;;;;;5026062;28;20033;-78
2023/11/25 02:42:47;;;;;;;5.82;3.65;;;3.90;51.50;;;;;;5026709;28;20139;-78
2023/11/25 02:45:18;;;;;;;6.07;2.50;;;3.90;51.50;;;;;;5019449;28;20021;-79
2023/11/25 02:47:46;;;;;;;5.15;3.10;;;3.90;51.50;;;;;;5018512;28;20038;-78
2023/11/25 02:50:14;;;;;;;6.20;3.17;;;3.90;51.60;;;;;;5017077;28;20489;-78
2023/11/25 02:52:41;;;;;;;5.00;3.03;;;3.90;52.10;;;;;;5024350;28;20056;-78
2023/11/25 02:55:11;;;;;;;6.20;2.67;;;3.90;51.60;;;;;;5019869;28;20448;-78
2023/11/25 02:57:45;;;;;;;6.00;2.70;;;3.90;51.60;;;;;;5023945;28;20045;-78
2023/11/25 03:02:49;;;;;;;5.85;2.75;;;3.80;51.40;;;;;;5022541;28;20052;-78
2023/11/25 03:05:18;;;;;;;5.57;2.60;;;3.80;51.50;;;;;;5028316;28;20026;-78
2023/11/25 03:07:45;;;;;;;4.13;2.38;;;3.80;51.50;;;;;;5026445;28;20507;-78
2023/11/25 03:10:13;;;;;;;4.93;2.47;;;3.70;51.30;;;;;;5007634;28;20034;-78
2023/11/25 03:12:42;;;;;;;4.72;3.00;;;3.70;51.30;;;;;;5054972;28;20044;-78
2023/11/25 03:15:09;;;;;;;7.13;3.25;;;3.70;51.40;;;;;;5021746;28;20123;-78
2023/11/25 03:17:34;;;;;;;4.93;2.65;;;3.70;51.40;;;;;;5016247;28;20034;-78
2023/11/25 03:20:00;;;;;;;6.38;2.80;;;3.60;51.20;;;;;;5022207;28;20398;-78
2023/11/25 03:22:26;;;;;;;3.17;2.35;;;3.60;51.30;;;;;;5026999;28;20120;-79
2023/11/25 03:24:53;;;;;;;4.35;2.70;;;3.60;51.30;;;;;;5039633;28;20029;-79
2023/11/25 03:27:19;;;;;;;4.82;2.60;;;3.60;51.30;;;;;;5026330;28;20063;-78
2023/11/25 03:29:45;;;;;;;3.10;2.33;;;3.60;51.30;;;;;;5038012;28;20156;-78
2023/11/25 03:32:12;;;;;;;4.43;2.90;;;3.50;51.10;;;;;;5027788;28;20033;-78
2023/11/25 03:34:38;;;;;;;4.18;2.72;;;3.50;51.20;;;;;;5024360;28;20033;-78
2023/11/25 03:37:04;;;;;;;4.53;2.90;;;3.50;51.20;;;;;;5021771;28;20091;-78
2023/11/25 03:39:30;;;;;;;4.65;2.38;;;3.50;51.20;;;;;;5024538;28;20324;-77
2023/11/25 03:41:57;;;;;;;3.80;2.45;;;3.50;51.20;;;;;;5038518;28;20698;-78
2023/11/25 03:44:23;;;;;;;4.88;2.30;;;3.50;51.30;;;;;;5027613;28;20056;-78
2023/11/25 03:46:49;;;;;;;4.47;2.63;;;3.40;51.10;;;;;;5021857;28;20037;-78
2023/11/25 03:49:14;;;;;;;4.88;2.65;;;3.40;51.10;;;;;;5027424;28;20453;-77
2023/11/25 03:51:40;;;;;;;6.15;2.35;;;3.40;51.10;;;;;;5021558;28;20045;-78
2023/11/25 03:54:06;;;;;;;5.60;2.60;;;3.40;51.10;;;;;;5032608;28;20029;-79
2023/11/25 03:56:32;;;;;;;4.00;2.50;;;3.40;51.10;;;;;;5027498;28;20064;-78
2023/11/25 03:58:58;;;;;;;5.57;2.15;;;3.30;50.90;;;;;;5020450;28;20647;-78
2023/11/25 04:01:24;;;;;;;5.82;2.10;;;3.30;51.00;;;;;;5016525;28;20029;-78
2023/11/25 04:03:50;;;;;;;4.18;2.53;;;3.30;51.00;;;;;;5053333;28;20028;-79
2023/11/25 04:06:16;;;;;;;2.65;2.30;;;3.30;51.00;;;;;;5035542;28;20535;-78
2023/11/25 04:08:42;;;;;;;2.63;1.80;;;3.30;51.00;;;;;;5029436;28;20037;-79
2023/11/25 04:11:09;;;;;;;2.80;2.08;;;3.30;51.10;;;;;;5023303;28;20443;-78
2023/11/25 04:13:35;;;;;;;2.80;2.42;;;3.20;50.90;;;;;;5022855;28;20162;-78
2023/11/25 04:16:03;;;;;;;4.78;2.13;;;3.20;50.90;;;;;;5028657;28;20033;-78
2023/11/25 04:18:30;;;;;;;5.22;2.60;;;3.20;50.90;;;;;;5023256;28;20037;-77
2023/11/25 04:20:56;;;;;;;4.75;2.10;;;3.10;50.70;;;;;;5030932;28;20504;-77
2023/11/25 04:23:24;;;;;;;4.50;2.05;;;3.20;51.00;;;;;;5026956;28;20095;-77
2023/11/25 04:25:51;;;;;;;4.50;2.50;;;3.10;50.80;;;;;;5021704;28;20040;-77
2023/11/25 04:28:17;;;;;;;4.22;2.28;;;3.10;50.80;;;;;;5031883;28;20033;-78
2023/11/25 04:30:42;;;;;;;5.68;2.17;;;3.10;50.80;;;;;;5017190;28;20092;-78
2023/11/25 04:33:12;;;;;;;4.38;1.90;;;3.10;50.90;;;;;;5026205;28;20438;-79
2023/11/25 04:35:38;;;;;;;4.95;1.83;;;3.00;50.70;;;;;;5022149;28;20081;-79
2023/11/25 04:38:05;;;;;;;4.35;2.20;;;3.10;50.80;;;;;;5029433;28;20534;-78
2023/11/25 04:40:31;;;;;;;5.07;1.90;;;3.00;50.70;;;;;;5022238;28;20057;-78
2023/11/25 04:42:57;;;;;;;3.92;2.50;;;3.00;50.70;;;;;;5019224;28;20018;-77
2023/11/25 04:45:25;;;;;;;4.45;2.20;;;3.00;50.70;;;;;;5022234;28;20030;-78
2023/11/25 04:47:51;;;;;;;3.40;2.10;;;2.90;50.50;;;;;;5032809;28;20147;-77
2023/11/25 04:50:18;;;;;;;3.67;1.98;;;3.00;50.70;;;;;;5020509;28;20559;-77
2023/11/25 04:52:44;;;;;;;5.05;2.30;;;2.90;50.60;;;;;;5006081;28;20501;-78
2023/11/25 04:55:14;;;;;;;3.67;1.83;;;2.90;50.60;;;;;;5017155;28;20072;-78
2023/11/25 04:57:40;;;;;;;4.13;2.40;;;2.90;50.60;;;;;;5056679;28;20033;-78
2023/11/25 05:00:10;;;;;;;3.67;1.67;;;2.90;50.60;;;;;;5027507;28;20045;-78
2023/11/25 05:02:37;;;;;;;5.30;2.38;;;2.80;50.50;;;;;;5022111;28;20363;-78
2023/11/25 05:05:04;;;;;;;4.93;1.77;;;2.80;50.50;;;;;;5001558;28;20064;-79
2023/11/25 05:07:31;;;;;;;5.57;2.72;;;2.80;50.50;;;;;;5030554;28;20497;-79
2023/11/25 05:09:57;;;;;;;6.55;2.95;;;2.80;50.50;;;;;;5025466;28;20436;-79
2023/11/25 05:12:23;;;;;;;7.72;3.53;;;2.80;50.60;;;;;;5023552;28;20529;-78
2023/11/25 05:14:50;;;;;;;6.80;2.95;;;2.80;50.60;;;;;;5027759;28;20239;-79
2023/11/25 05:17:18;;;;;;;8.23;3.45;;;2.70;50.40;;;;;;5025641;28;20116;-79
2023/11/25 05:19:45;;;;;;;6.75;3.05;;;2.70;50.40;;;;;;5028760;28;20045;-79
2023/11/25 05:22:11;;;;;;;4.18;3.22;;;2.70;50.50;;;;;;5029031;28;20053;-79
2023/11/25 05:24:37;;;;;;;6.38;3.55;;;2.70;50.50;;;;;;5027936;28;20440;-80
2023/11/25 05:27:03;;;;;;;6.53;3.20;;;2.70;50.50;;;;;;5011248;28;20044;-80
2023/11/25 05:29:30;;;;;;;6.97;3.15;;;2.60;50.30;;;;;;5021066;28;20054;-79
2023/11/25 05:31:56;;;;;;;5.65;2.97;;;2.60;50.30;;;;;;5027960;28;20026;-80
2023/11/25 05:34:24;;;;;;;5.22;3.03;;;2.60;50.30;;;;;;5025274;28;20397;-79
2023/11/25 05:36:50;;;;;;;4.38;3.13;;;2.60;50.30;;;;;;5028559;28;20328;-80
2023/11/25 05:39:20;;;;;;;5.07;2.60;;;2.60;50.30;;;;;;5021577;28;20030;-79
2023/11/25 05:41:49;;;;;;;6.88;2.72;;;2.50;50.10;;;;;;5026792;28;20045;-79
2023/11/25 05:44:20;;;;;;;4.78;2.80;;;2.50;50.10;;;;;;5023997;28;20041;-78
2023/11/25 05:46:46;;;;;;;4.60;2.70;;;2.50;50.20;;;;;;5027145;28;20091;-79
2023/11/25 05:49:12;;;;;;;4.70;2.80;;;2.50;50.20;;;;;;5025089;28;20580;-79
2023/11/25 05:51:42;;;;;;;3.65;2.15;;;2.40;50.00;;;;;;5017670;28;20029;-79
2023/11/25 05:54:08;;;;;;;4.95;2.17;;;2.50;50.30;;;;;;5021472;28;20103;-78
2023/11/25 05:56:34;;;;;;;4.28;2.20;;;2.40;50.10;;;;;;5024045;28;20330;-79
2023/11/25 05:59:02;;;;;;;7.07;2.67;;;2.40;50.20;;;;;;5036812;28;20632;-79
2023/11/25 06:01:28;;;;;;;4.75;1.90;;;2.40;50.20;;;;;;5023684;28;20044;-79
2023/11/25 06:03:54;;;;;;;3.67;2.20;;;2.40;50.20;;;;;;5021114;28;20033;-78
2023/11/25 06:06:21;;;;;;;3.38;1.85;;;2.40;50.20;;;;;;5022756;28;20034;-78
2023/11/25 06:08:47;;;;;;;4.55;2.40;;;2.40;50.20;;;;;;5010902;28;20045;-78
2023/11/25 06:11:22;;;;;;;4.72;1.90;;;2.40;50.30;;;;;;5019264;28;20033;-79
2023/11/25 06:13:48;;;;;;;4.35;1.63;;;2.30;50.00;;;;;;5023221;28;20037;-80
2023/11/25 06:16:15;;;;;;;5.85;1.92;;;2.30;50.10;;;;;;5022767;28;20033;-79
2023/11/25 06:18:41;;;;;;;5.85;2.03;;;2.30;50.10;;;;;;5022990;28;20509;-78
2023/11/25 06:21:07;;;;;;;3.42;1.80;;;2.30;50.10;;;;;;5027310;28;20029;-79
2023/11/25 06:23:33;;;;;;;3.03;1.95;;;2.30;50.10;;;;;;5023204;28;20392;-78
2023/11/25 06:25:59;;;;;;;3.75;1.70;;;2.30;50.10;;;;;;5023175;28;20033;-78
2023/11/25 06:28:26;;;;;;;2.50;1.98;;;2.30;50.20;;;;;;5028491;28;20429;-78
2023/11/25 06:30:55;;;;;;;2.67;1.55;;;2.30;50.20;;;;;;5023241;28;20129;-78
2023/11/25 06:33:24;;;;;;;3.00;1.55;;;2.30;50.20;;;;;;5026184;28;20063;-78
2023/11/25 06:35:51;;;;;;;3.55;1.58;;;2.20;50.00;;;;;;5028211;28;20428;-79
2023/11/25 06:38:17;;;;;;;4.07;1.80;;;2.20;50.00;;;;;;5027240;28;20029;-79
2023/11/25 06:40:43;;;;;;;3.78;1.50;;;2.20;50.00;;;;;;5027201;28;20415;-78
2023/11/25 06:43:09;;;;;;;2.70;1.58;;;2.20;50.00;;;;;;5038589;28;20463;-79
2023/11/25 06:45:35;;;;;;;2.70;2.00;;;2.20;50.00;;;;;;5021568;28;20029;-79
2023/11/25 06:48:02;;;;;;;3.25;2.00;;;2.10;49.80;;;;;;5027343;28;20092;-77
2023/11/25 06:50:28;;;;;;;3.88;1.50;;;2.10;49.90;;;;;;5016264;28;20592;-77
2023/11/25 06:52:54;;;;;;;3.97;1.60;;;2.10;49.90;;;;;;5016874;28;20060;-80
2023/11/25 06:55:20;;;;;;;4.10;1.70;;;2.10;49.90;;;;;;5024074;28;20143;-81
2023/11/25 06:57:47;;;;;;;2.53;1.35;;;2.00;49.70;;;;;;5014966;28;20532;-79
2023/11/25 07:00:14;;;;;;;3.63;2.25;;;2.00;49.70;;;;;;5018226;28;20038;-79
2023/11/25 07:02:40;;;;;;;4.28;1.85;;;2.00;49.80;;;;;;5014651;28;20029;-78
2023/11/25 07:05:10;;;;;;;2.70;1.70;;;2.00;49.80;;;;;;5029473;28;20033;-78
2023/11/25 07:07:37;;;;;;;4.50;1.75;;;2.00;49.80;;;;;;5022075;28;20140;-80
2023/11/25 07:10:09;;;;;;;5.57;2.38;;;2.00;49.80;;;;;;5018800;28;20045;-80
2023/11/25 07:12:37;;;;;;;24.63;5.25;;;2.00;49.90;;;;;;5016057;28;20123;-78
2023/11/25 07:15:05;;;;;;;17.70;4.35;;;2.00;50.10;;;;;;5020154;28;20936;-78
2023/11/25 07:17:31;;;;;;;10.90;3.22;;;2.00;50.20;;;;;;5015667;28;20121;-77
2023/11/25 07:19:57;;;;;;;10.45;3.10;;;2.00;50.40;;;;;;5020057;28;20030;-77
2023/11/25 07:22:23;;;;;;;11.15;3.25;;;2.10;50.60;;;;;;5010390;28;20036;-78
2023/11/25 07:24:48;;;;;;;6.53;3.17;;;2.10;51.30;;;;;;5035489;28;20388;-77
2023/11/25 07:27:18;;;;;;;6.25;2.13;;;2.10;51.20;;;;;;5015275;28;20029;-77
2023/11/25 07:29:49;;;;;;;7.25;2.92;;;2.00;50.40;;;;;;5033901;28;20473;-77
2023/11/25 07:32:15;;;;;;;4.68;2.00;;;2.00;50.50;;;;;;5017613;28;20025;-78
2023/11/25 07:34:41;;;;;;;6.90;2.92;;;2.00;50.50;;;;;;5018327;28;20034;-78
2023/11/25 07:37:07;;;;;;;8.15;2.42;;;2.00;50.70;;;;;;5014564;28;20073;-77
2023/11/25 07:39:34;;;;;;;4.55;2.30;;;2.00;50.60;;;;;;5016162;28;20029;-78
2023/11/25 07:42:01;;;;;;;4.95;2.40;;;2.00;50.60;;;;;;5012049;28;20418;-79
2023/11/25 07:44:30;;;;;;;3.72;1.85;;;2.00;50.60;;;;;;5033249;28;20083;-77
2023/11/25 07:46:57;;;;;;;5.60;2.55;;;1.90;50.50;;;;;;5016105;28;20100;-78
2023/11/25 07:49:23;;;;;;;6.55;2.50;;;2.00;50.60;;;;;;5017453;28;20399;-77
2023/11/25 07:51:49;;;;;;;5.15;2.30;;;1.90;50.50;;;;;;5017851;28;20037;-78
2023/11/25 07:54:17;;;;;;;8.98;3.45;;;1.90;50.50;;;;;;5018013;28;20365;-77
2023/11/25 07:56:45;;;;;;;5.18;2.67;;;1.90;50.90;;;;;;5016577;28;20143;-77
2023/11/25 07:59:11;;;;;;;3.95;2.80;;;2.00;51.20;;;;;;5021127;28;20041;-77
2023/11/25 08:01:38;;;;;;;4.13;2.33;;;2.10;51.40;;;;;;5019091;28;20393;-78
2023/11/25 08:04:04;;;;;;;5.57;2.45;;;2.10;51.40;;;;;;5011185;28;20034;-78
2023/11/25 08:06:33;;;;;;;7.13;2.90;;;2.10;51.40;;;;;;5020646;28;20030;-76
2023/11/25 08:08:59;;;;;;;4.68;2.25;;;2.10;51.40;;;;;;5014532;28;20554;-76
2023/11/25 08:11:32;;;;;;;3.13;2.25;;;2.10;51.40;;;;;;5023595;28;20041;-75
2023/11/25 08:13:59;;;;;;;4.15;2.20;;;2.00;51.80;;;;;;5018813;28;20451;-76
2023/11/25 08:16:25;;;;;;;6.63;2.40;;;2.00;51.30;;;;;;5016044;28;20088;-76
2023/11/25 08:18:51;;;;;;;4.00;2.40;;;2.00;51.30;;;;;;5016928;28;20044;-76
2023/11/25 08:21:17;;;;;;;5.32;2.42;;;2.00;51.30;;;;;;5016336;28;20528;-78
2023/11/25 08:23:43;;;;;;;5.72;2.80;;;2.00;51.30;;;;;;5029526;28;20025;-77
2023/11/25 08:26:25;;;;;;;5.82;2.67;;;2.00;51.30;;;;;;5011582;28;20103;-76
2023/11/25 08:28:52;;;;;;;3.70;2.37;;;2.00;51.30;;;;;;5015558;28;20045;-77
2023/11/25 08:31:19;;;;;;;5.47;3.00;;;1.90;51.10;;;;;;5014888;28;20071;-77
2023/11/25 08:33:46;;;;;;;4.32;2.53;;;2.00;51.30;;;;;;5031755;28;20095;-77
2023/11/25 08:36:13;;;;;;;5.65;2.55;;;1.90;51.10;;;;;;5031360;28;20025;-76
2023/11/25 08:38:40;;;;;;;4.20;2.55;;;2.00;51.30;;;;;;5015011;28;20120;-76
2023/11/25 08:41:06;;;;;;;4.22;2.20;;;1.90;51.10;;;;;;4999819;28;20075;-77
2023/11/25 08:43:37;;;;;;;4.35;2.55;;;2.00;51.30;;;;;;5013651;28;20030;-75
2023/11/25 08:46:04;;;;;;;5.20;2.75;;;1.90;51.10;;;;;;5019158;28;20084;-75
2023/11/25 08:48:31;;;;;;;5.72;2.60;;;1.90;51.10;;;;;;5013356;28;20045;-75
2023/11/25 08:50:57;;;;;;;4.13;2.40;;;2.00;51.30;;;;;;5015329;28;20108;-75
2023/11/25 08:53:24;;;;;;;3.17;2.17;;;2.00;51.80;;;;;;5023825;28;20471;-76
2023/11/25 08:55:50;;;;;;;4.20;2.60;;;1.90;51.10;;;;;;5015182;28;20147;-76
2023/11/25 08:58:16;;;;;;;4.97;2.92;;;2.00;51.30;;;;;;5020530;28;20391;-76
2023/11/25 09:00:43;;;;;;;6.07;2.53;;;2.00;51.30;;;;;;5018226;28;20637;-76
2023/11/25 09:03:10;;;;;;;4.15;2.13;;;2.00;51.30;;;;;;5018557;28;20034;-75
2023/11/25 09:05:40;;;;;;;4.82;2.17;;;2.00;51.30;;;;;;5010026;28;20048;-75
2023/11/25 09:08:09;;;;;;;4.22;2.13;;;2.00;51.30;;;;;;5017770;28;20326;-76
2023/11/25 09:10:35;;;;;;;5.03;1.90;;;2.00;51.30;;;;;;5017041;28;20053;-77
2023/11/25 09:13:02;;;;;;;2.90;2.05;;;2.00;51.30;;;;;;5031581;28;20042;-75
2023/11/25 09:15:28;;;;;;;5.03;1.80;;;2.00;51.30;;;;;;5022570;28;20041;-76
2023/11/25 09:17:54;;;;;;;6.65;2.13;;;2.10;51.60;;;;;;5015710;28;20060;-76
2023/11/25 09:20:21;;;;;;;4.13;2.13;;;2.10;51.60;;;;;;5018060;28;20079;-76
2023/11/25 09:22:48;;;;;;;3.22;1.67;;;2.20;51.80;;;;;;5049863;28;20144;-75
2023/11/25 09:25:14;;;;;;;4.03;2.13;;;2.20;51.80;;;;;;5012724;28;20083;-76
2023/11/25 09:27:41;;;;;;;7.85;2.10;;;2.20;51.80;;;;;;5034411;28;20052;-76
2023/11/25 09:30:11;;;;;;;4.13;1.83;;;2.20;51.80;;;;;;5020210;28;20037;-76
2023/11/25 09:32:39;;;;;;;5.25;2.10;;;2.20;51.80;;;;;;5053323;28;20284;-76
2023/11/25 09:35:06;;;;;;;3.05;2.17;;;2.30;52.00;;;;;;5017150;28;20037;-78
2023/11/25 09:37:34;;;;;;;4.43;1.88;;;2.30;52.00;;;;;;5026891;28;20092;-77
2023/11/25 09:40:04;;;;;;;4.18;2.30;;;2.30;52.00;;;;;;5032095;28;20041;-77
2023/11/25 09:42:31;;;;;;;2.65;2.15;;;2.30;52.00;;;;;;5022375;28;20473;-77
2023/11/25 09:45:02;;;;;;;6.30;2.03;;;2.30;52.00;;;;;;5017734;28;20037;-78
2023/11/25 09:47:28;;;;;;;3.50;2.22;;;2.30;52.00;;;;;;5048555;28;20026;-77
2023/11/25 09:49:54;;;;;;;4.47;1.92;;;2.40;52.20;;;;;;5019304;28;20650;-76
2023/11/25 09:52:20;;;;;;;2.50;1.90;;;2.40;52.20;;;;;;5027512;28;20778;-76
2023/11/25 09:54:46;;;;;;;2.97;1.98;;;2.40;52.20;;;;;;5039533;28;20037;-77
2023/11/25 09:57:18;;;;;;;6.97;2.20;;;2.40;52.20;;;;;;5026190;28;20124;-76
2023/11/25 09:59:45;;;;;;;2.37;1.37;;;2.40;52.30;;;;;;5026801;28;20037;-79
2023/11/25 10:02:13;;;;;;;3.35;1.90;;;2.40;52.20;;;;;;5028717;28;20642;-77
2023/11/25 10:04:40;;;;;;;4.72;2.42;;;2.40;52.20;;;;;;5019352;28;20036;-76
2023/11/25 10:07:11;;;;;;;3.67;2.25;;;2.50;52.40;;;;;;5006507;28;20135;-77
2023/11/25 10:09:41;;;;;;;4.70;2.05;;;2.50;52.40;;;;;;5024036;28;20038;-76
2023/11/25 10:12:09;;;;;;;4.65;2.60;;;2.50;52.40;;;;;;5045314;28;20128;-77
2023/11/25 10:14:40;;;;;;;5.35;1.98;;;2.60;52.70;;;;;;5022140;28;20504;-76
2023/11/25 10:17:17;;;;;;;4.40;2.67;;;2.50;52.40;;;;;;5022705;28;20040;-75
2023/11/25 10:19:45;;;;;;;3.53;1.77;;;2.60;52.70;;;;;;5033533;28;20033;-75
2023/11/25 10:22:11;;;;;;;2.70;2.05;;;2.60;52.60;;;;;;5018113;28;20045;-76
2023/11/25 10:24:49;;;;;;;3.22;2.03;;;2.60;52.60;;;;;;5015941;28;20025;-76
2023/11/25 10:27:17;;;;;;;3.50;1.90;;;2.70;52.90;;;;;;5019126;28;20490;-77
2023/11/25 10:29:43;;;;;;;5.18;1.92;;;2.70;52.80;;;;;;5056937;28;20554;-76
2023/11/25 10:32:10;;;;;;;2.33;1.50;;;2.80;53.00;;;;;;5012788;28;20037;-77
2023/11/25 10:34:36;;;;;;;5.63;2.35;;;2.80;53.00;;;;;;5019509;28;20040;-75
2023/11/25 10:37:06;;;;;;;4.85;2.10;;;2.80;53.00;;;;;;5015283;28;20038;-75
2023/11/25 10:39:33;;;;;;;5.35;1.88;;;2.80;53.10;;;;;;5015580;28;20087;-76
2023/11/25 10:42:07;;;;;;;5.10;1.90;;;2.90;53.20;;;;;;5022893;28;20403;-76
2023/11/25 10:44:38;;;;;;;4.82;2.05;;;2.90;53.20;;;;;;5018619;28;20033;-77
2023/11/25 10:47:05;;;;;;;5.43;2.22;;;2.90;53.20;;;;;;5030637;28;20184;-76
2023/11/25 10:49:38;;;;;;;4.47;2.00;;;3.00;53.40;;;;;;5024261;28;20057;-76
2023/11/25 10:52:07;;;;;;;3.53;2.67;;;3.00;53.40;;;;;;5012870;28;20393;-76
2023/11/25 10:54:35;;;;;;;3.42;2.42;;;3.00;53.40;;;;;;5013190;28;20148;-76
2023/11/25 10:57:05;;;;;;;5.95;2.30;;;3.10;53.60;;;;;;5013988;28;20037;-77
2023/11/25 10:59:34;;;;;;;4.22;2.40;;;3.10;53.60;;;;;;5026682;28;20036;-76
2023/11/25 11:02:02;;;;;;;7.55;2.35;;;3.10;53.60;;;;;;5021328;28;20041;-74
2023/11/25 11:04:41;;;;;;;4.07;2.25;;;3.20;53.80;;;;;;5012710;28;20075;-76
2023/11/25 11:07:14;;;;;;;4.80;2.25;;;3.20;53.90;;;;;;5013977;28;20083;-76
2023/11/25 11:09:42;;;;;;;4.72;2.75;;;3.20;53.80;;;;;;5012738;28;20103;-76
2023/11/25 11:12:17;;;;;;;4.05;2.75;;;3.30;54.00;;;;;;5023999;28;20025;-76
2023/11/25 11:14:54;;;;;;;9.55;2.83;;;3.30;54.10;;;;;;5036136;28;20112;-75
2023/11/25 11:17:35;;;;;;;3.08;2.28;;;3.30;54.10;;;;;;5017275;28;20042;-77
2023/11/25 11:20:03;;;;;;;6.32;2.60;;;3.40;54.30;;;;;;5021660;28;20385;-78
2023/11/25 11:22:31;;;;;;;5.43;2.92;;;3.40;54.30;;;;;;5022818;28;20095;-78
2023/11/25 11:25:12;;;;;;;4.38;3.13;;;3.50;54.60;;;;;;5020860;28;20757;-78
2023/11/25 11:28:01;;;;;;;5.57;2.35;;;3.50;54.70;;;;;;5020767;28;20069;-78
2023/11/25 11:30:42;;;;;;;7.95;3.03;;;3.60;54.90;;;;;;5037002;28;20065;-79
2023/11/25 11:33:10;;;;;;;5.22;2.30;;;3.70;55.00;;;;;;5016029;28;20029;-78
2023/11/25 11:35:38;;;;;;;4.38;2.00;;;3.70;54.90;;;;;;5020697;28;20072;-78
2023/11/25 11:38:30;;;;;;;7.72;2.58;;;3.80;55.20;;;;;;5019621;28;20127;-77
2023/11/25 11:41:20;;;;;;;5.90;3.30;;;3.90;55.90;;;;;;5020253;28;20136;-78
2023/11/25 11:44:04;;;;;;;8.00;3.30;;;4.00;56.20;;;;;;5015214;28;20053;-78
2023/11/25 11:46:32;;;;;;;4.97;2.55;;;4.10;56.40;;;;;;5032175;28;20041;-78
2023/11/25 11:49:00;;;;;;;9.60;2.92;;;4.20;56.70;;;;;;5012268;28;20500;-79
2023/11/25 11:51:28;;;;;;;9.80;2.92;;;4.30;56.80;;;;;;5027628;28;20026;-78
2023/11/25 11:54:19;;;;;;;4.38;2.75;;;4.30;56.90;;;;;;5016408;28;20034;-79
2023/11/25 11:57:05;;;;;;;6.65;2.63;;;4.40;57.20;;;;;;5020529;28;20041;-77
2023/11/25 12:00:11;;;;;;;5.72;3.08;;;4.50;57.30;;;;;;5011628;28;20524;-78
2023/11/25 12:02:42;;;;;;;5.25;2.35;;;4.50;57.40;;;;;;5041592;28;20052;-77
2023/11/25 12:05:10;;;;;;;4.53;2.58;;;4.60;57.40;;;;;;5008857;28;20512;-77
2023/11/25 12:07:37;;;;;;;10.05;3.03;;;4.60;57.50;;;;;;5015156;28;20029;-78
2023/11/25 12:10:07;;;;;;;4.15;2.22;;;4.60;57.50;;;;;;5021417;28;20037;-78
2023/11/25 12:12:41;;;;;;;7.13;2.22;;;4.70;57.70;;;;;;5015384;28;20025;-77
2023/11/25 12:15:09;;;;;;;6.75;2.45;;;4.70;57.70;;;;;;5024998;28;20041;-76
2023/11/25 12:17:35;;;;;;;4.20;2.15;;;4.70;57.70;;;;;;5019589;28;20033;-76
2023/11/25 12:20:01;;;;;;;5.60;2.10;;;4.80;57.80;;;;;;5017794;28;20396;-76
2023/11/25 12:22:28;;;;;;;4.63;2.40;;;4.80;57.80;;;;;;5020601;28;20033;-77
2023/11/25 12:24:55;;;;;;;4.72;2.25;;;4.80;57.80;;;;;;5048600;28;20041;-77
2023/11/25 12:27:23;;;;;;;6.60;2.78;;;4.90;57.90;;;;;;5011537;28;20643;-75
2023/11/25 12:29:49;;;;;;;5.47;2.03;;;4.90;57.90;;;;;;5018272;28;20448;-78
2023/11/25 12:32:16;;;;;;;5.30;2.15;;;5.00;58.70;;;;;;5013458;28;20561;-76
2023/11/25 12:34:45;;;;;;;2.78;1.80;;;5.00;58.10;;;;;;5027656;28;20123;-76
2023/11/25 12:37:12;;;;;;;6.32;2.30;;;5.00;58.10;;;;;;5017985;28;20059;-78
2023/11/25 12:39:39;;;;;;;7.45;2.38;;;5.10;58.20;;;;;;5024537;28;20048;-78
2023/11/25 12:42:05;;;;;;;5.00;2.70;;;5.10;58.20;;;;;;5021778;28;20104;-79
2023/11/25 12:44:55;;;;;;;4.03;2.30;;;5.10;58.40;;;;;;5022851;28;20235;-77
2023/11/25 12:47:21;;;;;;;22.90;3.25;;;5.20;58.80;;;;;;5019875;28;20447;-77
2023/11/25 12:49:49;;;;;;;11.48;2.97;;;5.20;58.70;;;;;;5015925;28;20034;-78
2023/11/25 12:52:21;;;;;;;8.10;3.00;;;5.30;59.20;;;;;;5017917;28;20369;-76
2023/11/25 12:54:49;;;;;;;8.73;2.80;;;5.40;59.60;;;;;;5020208;28;20033;-77
2023/11/25 12:57:17;;;;;;;4.53;2.15;;;5.50;59.80;;;;;;5017334;28;20205;-77
2023/11/25 12:59:44;;;;;;;5.60;2.13;;;5.70;60.20;;;;;;5024105;28;20037;-77
2023/11/25 13:02:12;;;;;;;6.25;2.25;;;5.80;60.30;;;;;;5018628;28;20423;-76
2023/11/25 13:04:51;;;;;;;6.75;2.13;;;5.90;60.40;;;;;;5012841;28;20496;-78